Time;durP1;ratioP1;P1;durP2;ratioP2;P2;SDS_P1;SDS_P2;PMS_P1;PMS_P2;Temp;Humidity;BMP_temperature;BMP_pressure;BME280_temperature;BME280_humidity;BME280_pressure;Samples;Min_cycle;Max_cycle;Signal;HPM_P1;HPM_P2
2023/11/05 00:03:35;;;;;;;;;;;;;;;;;;;;;
2023/11/05 00:13:11;;;;;;;2.67;1.10;;;10.90;99.90;;;;;;4812944;29;20461;-80
2023/11/05 00:22:47;;;;;;;4.70;1.13;;;11.10;99.90;;;;;;4865517;28;20936;-81
2023/11/05 00:44:33;;;;;;;9.20;1.80;;;11.30;99.90;;;;;;4806345;29;20477;-79
2023/11/05 01:12:26;;;;;;;4.90;1.50;;;11.40;93.80;;;;;;4746102;29;20501;-81
2023/11/05 01:15:03;;;;;;;6.20;1.13;;;11.50;99.90;;;;;;5010762;28;20617;-79
2023/11/05 01:17:55;;;;;;;;;;;;;;;;;;;;;
2023/11/05 02:43:47;;;;;;;11.30;1.73;;;10.40;99.90;;;;;;4781862;29;20758;-80
2023/11/05 02:46:24;;;;;;;6.60;1.53;;;10.40;99.90;;;;;;4977699;28;20559;-81
2023/11/05 02:49:12;;;;;;;6.83;1.53;;;10.40;99.90;;;;;;4994321;28;20522;-82
2023/11/05 02:51:52;;;;;;;2.93;1.37;;;10.70;99.90;;;;;;4880589;29;20491;-82
2023/11/05 03:11:24;;;;;;;7.20;1.20;;;10.40;99.90;;;;;;4739258;30;20998;-81
2023/11/05 03:14:34;;;;;;;;;;;;;;;;;;;;;
2023/11/05 03:38:51;;;;;;;6.90;1.47;;;10.40;99.90;;;;;;4847429;28;20439;-79
2023/11/05 03:41:36;;;;;;;5.37;1.27;;;10.50;99.90;;;;;;4875701;29;20272;-79
2023/11/05 03:44:07;;;;;;;6.63;1.33;;;10.30;99.90;;;;;;4908274;28;20555;-80
2023/11/05 03:46:36;;;;;;;2.20;0.90;;;10.30;99.90;;;;;;4991895;28;20478;-79
2023/11/05 03:49:06;;;;;;;1.90;0.93;;;10.30;99.90;;;;;;5053144;28;20489;-79
2023/11/05 03:51:38;;;;;;;10.20;1.80;;;10.30;99.90;;;;;;5053178;28;21053;-79
2023/11/05 03:54:12;;;;;;;2.93;1.17;;;10.40;99.90;;;;;;5054600;28;20456;-80
2023/11/05 03:56:49;;;;;;;2.70;1.00;;;10.30;99.90;;;;;;5054376;28;20543;-80
2023/11/05 03:59:22;;;;;;;2.93;1.17;;;10.30;99.90;;;;;;5055056;28;20437;-80
2023/11/05 04:01:55;;;;;;;6.80;1.20;;;10.40;99.90;;;;;;5046176;28;20977;-80
2023/11/05 04:08:39;;;;;;;2.03;1.03;;;10.40;99.90;;;;;;4875141;29;20465;-79
2023/11/05 04:11:11;;;;;;;4.70;1.40;;;10.50;99.90;;;;;;4926947;29;20544;-79
2023/11/05 04:32:03;;;;;;;2.90;1.00;;;10.40;99.90;;;;;;4753254;29;20504;-81
2023/11/05 04:34:37;;;;;;;1.87;0.90;;;10.30;99.90;;;;;;4990706;28;20573;-79
2023/11/05 04:37:14;;;;;;;4.70;1.10;;;10.30;99.90;;;;;;5051195;28;20446;-79
2023/11/05 04:42:38;;;;;;;3.10;1.23;;;10.30;99.90;;;;;;4992226;28;21067;-80
2023/11/05 04:45:10;;;;;;;3.13;1.00;;;10.30;99.90;;;;;;5047430;28;20826;-81
2023/11/05 04:47:57;;;;;;;5.83;3.20;;;10.40;99.90;;;;;;5058207;28;20451;-80
2023/11/05 04:50:25;;;;;;;2.77;1.00;;;10.50;99.90;;;;;;5017572;28;20512;-81
2023/11/05 04:53:18;;;;;;;3.37;0.80;;;10.50;99.90;;;;;;5056948;28;20491;-80
2023/11/05 04:56:17;;;;;;;1.40;0.90;;;10.50;99.90;;;;;;5054955;28;20483;-79
2023/11/05 04:58:44;;;;;;;3.00;1.00;;;10.50;99.90;;;;;;5050912;28;20564;-82
2023/11/05 05:01:23;;;;;;;2.80;1.10;;;10.50;99.90;;;;;;5054971;28;20452;-81
2023/11/05 05:04:00;;;;;;;2.90;1.10;;;10.50;99.90;;;;;;5054280;28;20482;-80
2023/11/05 05:13:34;;;;;;;;;;;;;;;;;;;;;
2023/11/05 05:22:16;;;;;;;1.63;0.80;;;10.60;99.90;;;;;;4802348;29;20568;-80
2023/11/05 05:31:39;;;;;;;1.30;0.70;;;10.70;99.90;;;;;;4804263;29;20498;-79
2023/11/05 05:40:37;;;;;;;2.17;0.70;;;10.70;99.90;;;;;;4806836;29;20491;-78
2023/11/05 05:43:23;;;;;;;2.00;0.80;;;10.60;99.90;;;;;;4949697;29;20491;-79
2023/11/05 05:48:57;;;;;;;2.90;0.80;;;10.70;99.90;;;;;;5017847;28;20460;-79
2023/11/05 05:51:27;;;;;;;1.90;0.80;;;10.70;99.90;;;;;;5049509;28;20464;-78
2023/11/05 05:54:16;;;;;;;1.40;1.00;;;10.70;99.90;;;;;;5056628;28;20997;-77
2023/11/05 05:56:44;;;;;;;2.50;0.70;;;10.70;99.90;;;;;;5055075;28;20460;-83
2023/11/05 05:59:21;;;;;;;2.17;1.03;;;10.70;99.90;;;;;;5063278;28;20528;-78
2023/11/05 06:01:48;;;;;;;1.30;0.70;;;10.70;99.90;;;;;;5062558;28;20521;-80
2023/11/05 06:04:42;;;;;;;3.30;0.70;;;10.70;99.90;;;;;;5061339;28;20507;-79
2023/11/05 06:07:17;;;;;;;1.87;1.27;;;10.70;99.90;;;;;;5067029;28;20857;-79
2023/11/05 06:09:43;;;;;;;1.40;0.70;;;10.80;99.90;;;;;;5064222;28;20515;-79
2023/11/05 06:12:35;;;;;;;3.40;0.80;;;10.70;99.90;;;;;;5062811;28;20543;-79
2023/11/05 06:15:02;;;;;;;2.93;0.83;;;10.80;99.90;;;;;;5053838;28;20519;-81
2023/11/05 06:17:47;;;;;;;;;;;;;;;;;;;;;
2023/11/05 06:20:18;;;;;;;1.80;0.80;;;10.80;99.90;;;;;;5063279;28;20535;-81
2023/11/05 06:23:00;;;;;;;1.93;0.70;;;10.80;99.90;;;;;;5062583;28;20455;-78
2023/11/05 06:26:02;;;;;;;;;;;;;;;;;;;;;
2023/11/05 06:28:33;;;;;;;1.70;0.70;;;10.80;99.90;;;;;;5068595;28;20452;-78
2023/11/05 06:31:00;;;;;;;2.40;0.80;;;10.80;99.90;;;;;;5062840;28;20442;-81
2023/11/05 06:33:33;;;;;;;2.63;1.00;;;10.80;99.90;;;;;;5074837;28;20589;-81
2023/11/05 06:36:03;;;;;;;1.60;0.80;;;10.80;99.90;;;;;;5073703;28;20454;-81
2023/11/05 06:38:30;;;;;;;1.50;0.80;;;10.80;99.90;;;;;;5075309;28;20456;-80
2023/11/05 06:40:57;;;;;;;3.40;0.70;;;10.80;99.90;;;;;;5075689;28;20472;-81
2023/11/05 06:43:27;;;;;;;1.50;0.77;;;10.80;99.90;;;;;;5074825;28;20483;-81
2023/11/05 06:45:55;;;;;;;1.73;0.53;;;10.80;99.90;;;;;;5070620;28;20466;-82
2023/11/05 06:48:23;;;;;;;1.50;0.70;;;10.80;99.90;;;;;;5061877;28;20496;-82
2023/11/05 06:50:50;;;;;;;2.23;0.80;;;10.90;99.90;;;;;;5061894;28;20547;-82
2023/11/05 06:53:17;;;;;;;3.97;0.80;;;10.90;99.90;;;;;;5062910;28;20511;-82
2023/11/05 06:55:47;;;;;;;1.50;0.70;;;11.00;99.90;;;;;;5063538;28;20571;-81
2023/11/05 06:58:22;;;;;;;1.27;0.70;;;11.00;99.90;;;;;;5063572;28;20494;-82
2023/11/05 07:00:49;;;;;;;1.63;0.77;;;11.00;99.90;;;;;;5062478;28;20463;-80
2023/11/05 07:03:23;;;;;;;3.90;0.93;;;11.00;99.90;;;;;;5058793;28;20448;-79
2023/11/05 07:06:04;;;;;;;1.37;0.60;;;11.00;99.90;;;;;;5060670;28;20461;-79
2023/11/05 07:08:31;;;;;;;1.40;0.70;;;11.10;99.90;;;;;;5060534;28;20455;-80
2023/11/05 07:11:47;;;;;;;3.67;0.80;;;11.20;99.90;;;;;;5063080;28;20453;-82
2023/11/05 07:17:59;;;;;;;1.70;0.70;;;11.10;99.90;;;;;;4938974;29;20520;-80
2023/11/05 07:31:47;;;;;;;1.77;0.70;;;11.10;99.90;;;;;;3136603;26;20490;-82
2023/11/05 07:51:24;;;;;;;1.60;0.80;;;11.20;99.90;;;;;;4870519;29;20457;-79
2023/11/05 08:00:36;;;;;;;1.80;0.77;;;11.20;99.90;;;;;;4937986;28;20553;-77
2023/11/05 08:03:27;;;;;;;1.70;0.70;;;11.30;99.90;;;;;;5014617;28;20970;-79
2023/11/05 08:06:53;;;;;;;;;;;;;;;;;;;;;
2023/11/05 08:10:10;;;;;;;1.43;0.70;;;11.20;99.90;;;;;;4991168;28;20445;-79
2023/11/05 08:12:48;;;;;;;1.60;0.80;;;11.30;99.90;;;;;;4969851;28;20480;-79
2023/11/05 08:15:20;;;;;;;1.60;0.60;;;11.30;99.90;;;;;;4980434;28;20493;-79
2023/11/05 08:17:58;;;;;;;1.80;0.70;;;11.30;99.90;;;;;;5012214;28;20450;-79
2023/11/05 08:20:32;;;;;;;1.30;0.60;;;11.30;99.90;;;;;;5017349;28;20457;-80
2023/11/05 08:22:59;;;;;;;1.30;0.60;;;11.30;99.90;;;;;;5008476;28;20510;-80
2023/11/05 08:25:30;;;;;;;1.40;0.80;;;11.30;99.90;;;;;;5013802;28;20473;-79
2023/11/05 08:27:58;;;;;;;1.77;0.70;;;11.20;99.90;;;;;;5014372;28;20454;-79
2023/11/05 08:30:25;;;;;;;2.37;0.80;;;11.40;99.90;;;;;;5000087;28;20942;-79
2023/11/05 08:32:53;;;;;;;3.13;0.90;;;11.50;99.90;;;;;;5013737;28;21016;-78
2023/11/05 08:35:27;;;;;;;1.83;0.90;;;11.60;99.90;;;;;;5008019;28;20573;-78
2023/11/05 08:37:55;;;;;;;1.40;0.70;;;11.60;99.90;;;;;;5014590;28;20496;-79
2023/11/05 08:40:25;;;;;;;1.97;0.70;;;11.50;99.90;;;;;;5020207;28;20457;-79
2023/11/05 08:42:54;;;;;;;1.77;0.90;;;11.60;99.90;;;;;;5022422;28;20460;-77
2023/11/05 08:45:23;;;;;;;1.50;0.70;;;11.60;99.90;;;;;;5021077;28;20517;-78
2023/11/05 08:47:51;;;;;;;1.30;0.70;;;11.70;99.90;;;;;;5027245;28;20480;-79
2023/11/05 08:50:25;;;;;;;2.60;1.00;;;11.70;99.90;;;;;;5022759;28;20461;-78
2023/11/05 08:53:12;;;;;;;1.30;0.80;;;11.80;99.90;;;;;;5023503;28;20457;-78
2023/11/05 08:55:44;;;;;;;1.57;0.83;;;11.80;99.90;;;;;;5014750;28;20486;-78
2023/11/05 08:58:16;;;;;;;2.50;1.00;;;11.90;99.90;;;;;;5018829;28;20447;-79
2023/11/05 09:00:55;;;;;;;3.10;0.90;;;11.90;99.90;;;;;;5027456;28;20475;-78
2023/11/05 09:03:23;;;;;;;3.40;0.90;;;11.90;99.90;;;;;;5028307;28;20450;-79
2023/11/05 09:06:09;;;;;;;2.60;0.80;;;12.00;99.90;;;;;;5010074;28;20524;-77
2023/11/05 09:08:38;;;;;;;1.37;0.80;;;12.00;99.90;;;;;;5013601;28;20462;-78
2023/11/05 09:11:10;;;;;;;1.40;0.80;;;12.00;99.90;;;;;;5018722;28;20513;-79
2023/11/05 09:13:37;;;;;;;1.80;1.20;;;12.00;99.90;;;;;;5023570;28;20494;-78
2023/11/05 09:16:11;;;;;;;1.90;1.10;;;12.20;99.90;;;;;;5025273;28;20530;-78
2023/11/05 09:18:42;;;;;;;1.80;1.00;;;12.20;99.90;;;;;;5014756;28;20475;-78
2023/11/05 09:21:22;;;;;;;2.90;1.00;;;12.20;99.90;;;;;;5018404;28;20539;-78
2023/11/05 09:23:48;;;;;;;2.43;1.30;;;12.10;99.90;;;;;;5022928;28;20460;-78
2023/11/05 09:26:23;;;;;;;2.23;1.03;;;12.10;99.90;;;;;;5016489;28;20597;-78
2023/11/05 09:29:14;;;;;;;1.70;1.10;;;12.20;99.90;;;;;;5015925;28;20453;-79
2023/11/05 09:31:47;;;;;;;3.47;1.20;;;12.10;99.90;;;;;;5011460;28;21256;-78
2023/11/05 09:34:20;;;;;;;1.77;1.10;;;12.20;99.90;;;;;;5013691;28;20492;-79
2023/11/05 09:37:00;;;;;;;2.67;1.20;;;12.40;99.90;;;;;;5013055;28;20451;-77
2023/11/05 09:43:01;;;;;;;;;;;;;;;;;;;;;
2023/11/05 09:48:50;;;;;;;1.70;1.20;;;12.50;99.90;;;;;;5022665;28;20441;-78
2023/11/05 09:51:36;;;;;;;1.60;1.20;;;12.70;99.90;;;;;;5026761;28;20485;-78
2023/11/05 09:54:23;;;;;;;3.20;1.20;;;12.80;99.90;;;;;;5024207;28;20495;-78
2023/11/05 09:56:58;;;;;;;2.63;1.30;;;12.90;99.90;;;;;;5018783;28;20524;-79
2023/11/05 10:03:24;;;;;;;2.30;1.47;;;13.10;99.90;;;;;;4942429;28;20439;-78
2023/11/05 10:05:55;;;;;;;2.27;1.20;;;13.00;99.90;;;;;;4960182;28;20464;-78
2023/11/05 10:08:23;;;;;;;3.10;1.07;;;13.10;99.90;;;;;;5003352;28;20875;-79
2023/11/05 10:10:53;;;;;;;1.60;1.20;;;13.20;99.90;;;;;;5019338;28;21012;-79
2023/11/05 10:13:22;;;;;;;2.00;1.07;;;13.30;99.90;;;;;;5015484;28;20975;-78
2023/11/05 10:15:52;;;;;;;1.93;1.03;;;13.40;99.90;;;;;;5021582;28;20473;-81
2023/11/05 10:18:23;;;;;;;2.13;1.00;;;13.40;99.90;;;;;;5018924;28;20472;-80
2023/11/05 10:20:55;;;;;;;3.50;1.40;;;13.50;99.90;;;;;;5026981;28;20536;-79
2023/11/05 10:23:22;;;;;;;1.93;1.00;;;13.50;99.90;;;;;;5020014;28;20487;-79
2023/11/05 10:25:51;;;;;;;1.60;0.87;;;13.40;99.90;;;;;;5023220;28;20979;-80
2023/11/05 10:28:21;;;;;;;1.90;1.10;;;13.30;99.90;;;;;;5026214;28;20572;-78
2023/11/05 10:30:52;;;;;;;1.80;0.83;;;13.40;99.90;;;;;;5018645;28;20951;-77
2023/11/05 10:33:22;;;;;;;2.33;1.10;;;13.40;99.90;;;;;;5011397;28;20473;-78
2023/11/05 10:35:56;;;;;;;3.07;0.87;;;13.40;99.90;;;;;;5006603;28;20542;-78
2023/11/05 10:38:37;;;;;;;1.83;1.00;;;13.30;99.90;;;;;;5010432;28;20454;-76
2023/11/05 10:41:06;;;;;;;2.47;1.00;;;12.90;99.90;;;;;;5014750;28;20537;-77
2023/11/05 10:43:38;;;;;;;1.47;0.90;;;12.70;99.90;;;;;;5007778;28;20455;-79
2023/11/05 10:46:08;;;;;;;2.13;1.00;;;12.50;99.90;;;;;;5012224;28;20459;-77
2023/11/05 10:48:38;;;;;;;3.20;1.10;;;12.40;99.90;;;;;;5012588;28;20457;-77
2023/11/05 10:51:10;;;;;;;4.27;1.13;;;12.20;99.90;;;;;;5015015;28;20460;-77
2023/11/05 10:53:44;;;;;;;3.73;0.90;;;12.20;99.90;;;;;;5016156;28;20499;-77
2023/11/05 10:56:32;;;;;;;1.90;0.97;;;12.00;99.90;;;;;;5014592;28;20478;-77
2023/11/05 10:59:02;;;;;;;2.10;0.90;;;11.90;99.90;;;;;;5012873;28;20817;-77
2023/11/05 11:01:30;;;;;;;1.77;0.90;;;11.90;99.90;;;;;;5018047;28;20454;-79
2023/11/05 11:04:08;;;;;;;5.50;1.10;;;11.90;99.90;;;;;;5019218;28;20503;-80
2023/11/05 11:06:37;;;;;;;1.90;0.90;;;11.90;99.90;;;;;;5017011;28;20482;-77
2023/11/05 11:09:12;;;;;;;1.50;1.00;;;12.00;99.90;;;;;;5014449;28;20483;-79
2023/11/05 11:11:43;;;;;;;2.37;1.00;;;12.10;99.90;;;;;;5013455;28;20814;-79
2023/11/05 11:14:10;;;;;;;2.80;1.00;;;12.10;99.90;;;;;;5016695;28;20498;-81
2023/11/05 11:16:39;;;;;;;2.10;1.30;;;12.20;99.90;;;;;;5017783;28;20453;-79
2023/11/05 11:19:12;;;;;;;2.37;1.77;;;12.30;99.90;;;;;;5015420;28;20464;-78
2023/11/05 11:21:44;;;;;;;2.63;1.40;;;12.20;99.90;;;;;;5014826;28;20494;-80
2023/11/05 11:24:50;;;;;;;3.50;1.50;;;12.30;99.90;;;;;;5012164;28;20534;-80
2023/11/05 11:27:23;;;;;;;4.33;1.47;;;12.30;99.90;;;;;;5018259;28;20463;-80
2023/11/05 11:29:56;;;;;;;6.00;1.30;;;12.30;99.90;;;;;;5019120;28;20483;-79
2023/11/05 11:32:23;;;;;;;2.30;1.20;;;12.40;99.90;;;;;;5008937;28;20472;-77
2023/11/05 11:34:50;;;;;;;3.27;1.30;;;12.30;99.90;;;;;;5011059;28;20561;-79
2023/11/05 11:37:20;;;;;;;3.30;1.20;;;12.30;99.90;;;;;;5014751;28;20459;-79
2023/11/05 11:39:48;;;;;;;4.80;1.67;;;12.40;99.90;;;;;;5015534;28;21041;-77
2023/11/05 11:42:23;;;;;;;1.97;1.30;;;12.40;99.90;;;;;;5011996;28;20486;-79
2023/11/05 11:44:54;;;;;;;4.10;2.17;;;12.30;99.90;;;;;;5012405;28;20471;-79
2023/11/05 11:47:24;;;;;;;4.10;1.53;;;12.10;99.90;;;;;;5006389;28;20454;-78
2023/11/05 11:49:58;;;;;;;3.47;1.53;;;12.10;99.90;;;;;;5014879;28;20993;-79
2023/11/05 11:52:25;;;;;;;2.23;1.60;;;12.00;99.90;;;;;;5011190;28;20462;-82
2023/11/05 11:54:59;;;;;;;3.13;1.37;;;11.90;99.90;;;;;;5010696;28;20491;-78
2023/11/05 11:57:35;;;;;;;2.57;1.20;;;11.80;99.90;;;;;;5003340;28;20433;-80
2023/11/05 12:00:09;;;;;;;3.93;1.87;;;11.70;99.90;;;;;;5004898;28;20451;-78
2023/11/05 12:02:53;;;;;;;3.97;1.97;;;11.60;99.90;;;;;;5003832;28;20443;-78
2023/11/05 12:05:23;;;;;;;1.90;1.33;;;11.50;99.90;;;;;;5003604;28;20893;-79
2023/11/05 12:07:51;;;;;;;4.40;1.90;;;11.60;99.90;;;;;;5004591;28;20995;-77
2023/11/05 12:10:35;;;;;;;3.30;1.60;;;11.60;99.90;;;;;;5007176;28;20484;-77
2023/11/05 12:13:04;;;;;;;2.27;1.50;;;11.60;99.90;;;;;;5006552;28;20449;-79
2023/11/05 12:15:46;;;;;;;2.30;1.77;;;11.60;99.90;;;;;;5006792;28;20500;-77
2023/11/05 12:18:22;;;;;;;3.67;1.70;;;11.50;99.90;;;;;;5002413;28;20442;-80
2023/11/05 12:20:50;;;;;;;4.53;1.90;;;11.40;99.90;;;;;;5010083;28;20802;-80
2023/11/05 12:23:19;;;;;;;3.83;2.10;;;11.40;99.90;;;;;;5012360;28;20457;-77
2023/11/05 12:25:57;;;;;;;2.33;2.00;;;11.40;99.90;;;;;;5011577;28;20474;-84
2023/11/05 12:28:28;;;;;;;4.07;3.13;;;11.20;99.90;;;;;;5016341;28;20450;-78
2023/11/05 12:30:57;;;;;;;3.90;1.90;;;11.20;99.90;;;;;;5018879;28;20470;-79
2023/11/05 12:33:24;;;;;;;4.87;1.80;;;11.30;99.90;;;;;;5018100;28;20462;-77
2023/11/05 12:35:51;;;;;;;1.80;1.50;;;11.30;99.90;;;;;;5019134;28;20492;-80
2023/11/05 12:38:20;;;;;;;8.53;1.90;;;11.30;99.90;;;;;;5023101;28;20447;-79
2023/11/05 12:43:34;;;;;;;3.40;1.77;;;11.10;99.90;;;;;;5012166;28;20460;-80
2023/11/05 12:46:04;;;;;;;3.07;1.70;;;11.20;99.90;;;;;;5019110;28;20444;-81
2023/11/05 12:48:33;;;;;;;5.00;1.97;;;11.20;99.90;;;;;;5017837;28;20974;-80
2023/11/05 12:51:01;;;;;;;5.83;2.43;;;11.20;99.90;;;;;;5019648;28;20442;-79
2023/11/05 12:53:28;;;;;;;2.60;1.80;;;11.20;99.90;;;;;;5020048;28;20922;-79
2023/11/05 12:56:03;;;;;;;3.47;2.43;;;11.30;99.90;;;;;;5015027;28;20568;-80
2023/11/05 12:58:30;;;;;;;5.90;3.63;;;11.40;99.90;;;;;;5016871;28;20537;-80
2023/11/05 13:00:59;;;;;;;4.90;3.17;;;11.40;99.90;;;;;;5020838;28;20500;-80
2023/11/05 13:03:27;;;;;;;5.90;2.83;;;11.50;99.90;;;;;;5028500;28;20453;-79
2023/11/05 13:05:54;;;;;;;6.67;3.90;;;11.50;99.90;;;;;;5033653;28;20448;-79
2023/11/05 13:08:21;;;;;;;8.77;4.00;;;11.50;99.90;;;;;;5029846;28;20480;-80
2023/11/05 13:10:48;;;;;;;6.47;3.27;;;11.60;99.90;;;;;;5030603;28;20512;-79
2023/11/05 13:13:14;;;;;;;7.17;3.37;;;11.60;99.90;;;;;;5037873;28;20496;-79
2023/11/05 13:15:41;;;;;;;7.40;3.50;;;11.60;99.90;;;;;;5036201;28;20508;-80
2023/11/05 13:18:10;;;;;;;4.87;3.80;;;11.60;99.90;;;;;;5036774;28;20447;-80
2023/11/05 13:20:36;;;;;;;6.07;3.13;;;11.60;99.90;;;;;;5030585;28;21093;-79
2023/11/05 13:23:04;;;;;;;5.03;3.87;;;11.60;99.90;;;;;;5029347;28;20528;-81
2023/11/05 13:25:31;;;;;;;4.73;3.57;;;11.60;99.90;;;;;;5029688;28;20997;-81
2023/11/05 13:27:59;;;;;;;9.23;3.37;;;11.60;99.90;;;;;;5028670;28;21007;-82
2023/11/05 13:30:25;;;;;;;7.00;3.90;;;11.60;99.90;;;;;;5028749;28;21006;-79
2023/11/05 13:32:53;;;;;;;5.63;3.93;;;11.60;99.90;;;;;;5028734;28;20455;-81
2023/11/05 13:35:21;;;;;;;5.50;3.90;;;11.60;99.90;;;;;;5020786;28;20543;-82
2023/11/05 13:37:50;;;;;;;6.70;5.30;;;11.70;99.90;;;;;;5020795;28;21130;-78
2023/11/05 13:40:25;;;;;;;4.43;4.00;;;11.60;99.90;;;;;;5031498;28;20446;-78
2023/11/05 13:42:55;;;;;;;5.60;3.67;;;11.60;99.90;;;;;;5017584;28;20477;-81
2023/11/05 13:45:22;;;;;;;9.20;4.10;;;11.60;99.90;;;;;;5027047;28;20992;-80
2023/11/05 13:47:49;;;;;;;5.60;4.17;;;11.60;99.90;;;;;;5018245;28;20895;-77
2023/11/05 13:50:19;;;;;;;8.93;5.30;;;11.50;99.90;;;;;;5022111;28;20539;-81
2023/11/05 13:52:47;;;;;;;7.93;5.20;;;11.50;99.90;;;;;;5020088;28;20532;-81
2023/11/05 13:55:16;;;;;;;8.00;4.30;;;11.50;99.90;;;;;;5030983;28;21005;-82
2023/11/05 13:57:46;;;;;;;9.57;4.63;;;11.50;99.90;;;;;;5025969;28;20453;-82
2023/11/05 14:00:14;;;;;;;8.20;4.40;;;11.50;99.90;;;;;;5027926;28;21034;-80
2023/11/05 14:02:41;;;;;;;8.23;5.07;;;11.40;99.90;;;;;;5028247;28;20469;-81
2023/11/05 14:05:08;;;;;;;9.70;5.07;;;11.40;99.90;;;;;;5026912;28;20470;-82
2023/11/05 14:07:36;;;;;;;10.13;5.30;;;11.50;99.90;;;;;;5032729;28;20529;-83
2023/11/05 14:10:06;;;;;;;10.40;4.20;;;11.50;99.90;;;;;;5022628;28;20452;-82
2023/11/05 14:12:33;;;;;;;8.33;4.30;;;11.50;99.90;;;;;;5027183;28;20933;-82
2023/11/05 14:15:05;;;;;;;4.53;3.30;;;11.60;99.90;;;;;;5024949;28;20493;-78
2023/11/05 14:17:31;;;;;;;8.77;4.20;;;11.50;99.90;;;;;;5022691;28;20462;-80
2023/11/05 14:19:58;;;;;;;5.00;4.50;;;11.50;99.90;;;;;;5025410;28;20934;-81
2023/11/05 14:22:25;;;;;;;6.80;4.10;;;11.50;99.90;;;;;;5027903;28;20460;-79
2023/11/05 14:24:52;;;;;;;8.70;3.97;;;11.50;99.90;;;;;;5031599;28;20471;-80
2023/11/05 14:27:21;;;;;;;6.87;4.87;;;11.40;99.90;;;;;;5026252;28;20522;-79
2023/11/05 14:29:47;;;;;;;8.40;5.03;;;11.30;99.90;;;;;;5024922;28;20477;-79
2023/11/05 14:32:17;;;;;;;8.07;4.20;;;11.30;99.90;;;;;;5021630;28;20919;-79
2023/11/05 14:34:45;;;;;;;11.00;4.77;;;11.30;99.90;;;;;;5022702;28;20489;-82
2023/11/05 14:37:13;;;;;;;5.07;3.47;;;11.30;99.90;;;;;;5009725;28;20455;-80
2023/11/05 14:39:42;;;;;;;6.57;4.93;;;11.20;99.90;;;;;;5011993;28;20467;-79
2023/11/05 14:42:12;;;;;;;4.63;2.97;;;11.30;99.90;;;;;;5018661;28;20458;-80
2023/11/05 14:44:46;;;;;;;5.20;3.47;;;11.20;99.90;;;;;;5021975;28;20477;-79
2023/11/05 14:47:25;;;;;;;5.63;3.47;;;11.20;99.90;;;;;;5018043;28;20461;-79
2023/11/05 14:50:00;;;;;;;9.20;4.07;;;11.20;99.90;;;;;;5018746;28;20458;-78
2023/11/05 14:52:29;;;;;;;6.83;3.20;;;11.20;99.90;;;;;;5011611;28;21028;-77
2023/11/05 14:55:04;;;;;;;6.07;4.10;;;11.10;99.90;;;;;;5027150;28;20525;-79
2023/11/05 14:57:32;;;;;;;6.10;3.67;;;11.10;99.90;;;;;;5018032;28;20473;-80
2023/11/05 15:00:12;;;;;;;8.50;3.47;;;11.10;99.90;;;;;;5016970;28;20904;-79
2023/11/05 15:02:41;;;;;;;5.10;3.37;;;11.10;99.90;;;;;;5018337;28;20958;-79
2023/11/05 15:05:11;;;;;;;8.03;3.23;;;11.00;99.90;;;;;;5015994;28;20568;-80
2023/11/05 15:07:39;;;;;;;5.50;4.03;;;11.00;99.90;;;;;;5016248;28;20459;-79
2023/11/05 15:10:10;;;;;;;6.60;3.67;;;11.00;99.90;;;;;;5015243;28;20467;-80
2023/11/05 15:12:37;;;;;;;5.70;3.43;;;11.00;99.90;;;;;;5017543;28;20471;-79
2023/11/05 15:15:08;;;;;;;6.00;3.40;;;11.00;99.90;;;;;;5011833;28;20486;-77
2023/11/05 15:17:35;;;;;;;6.00;3.90;;;11.00;99.90;;;;;;5018636;28;20891;-78
2023/11/05 15:20:04;;;;;;;7.00;4.27;;;11.00;99.90;;;;;;5017220;28;20523;-80
2023/11/05 15:22:50;;;;;;;6.80;3.17;;;10.90;99.90;;;;;;5012804;28;20516;-79
2023/11/05 15:25:17;;;;;;;4.07;3.67;;;10.90;99.90;;;;;;5016419;28;20543;-79
2023/11/05 15:27:46;;;;;;;3.90;2.60;;;10.90;99.90;;;;;;5019824;28;20460;-79
2023/11/05 15:30:21;;;;;;;4.17;2.93;;;10.90;99.90;;;;;;5015929;28;20453;-81
2023/11/05 15:32:52;;;;;;;6.00;2.93;;;10.90;99.90;;;;;;5016112;28;20470;-80
2023/11/05 15:35:26;;;;;;;4.80;3.40;;;10.90;99.90;;;;;;5014010;28;20496;-77
2023/11/05 15:38:11;;;;;;;4.80;3.47;;;10.90;99.90;;;;;;5011098;28;20552;-77
2023/11/05 15:40:40;;;;;;;5.87;3.70;;;10.90;99.90;;;;;;5014235;28;20458;-79
2023/11/05 15:43:07;;;;;;;7.90;3.50;;;10.70;99.90;;;;;;5016566;28;20460;-79
2023/11/05 15:45:38;;;;;;;5.20;3.80;;;10.80;99.90;;;;;;5011500;28;20534;-79
2023/11/05 15:48:05;;;;;;;7.00;3.70;;;10.80;99.90;;;;;;5013163;28;20905;-79
2023/11/05 15:50:36;;;;;;;10.60;8.37;;;10.70;99.90;;;;;;5014982;28;20453;-78
2023/11/05 15:53:11;;;;;;;8.70;4.50;;;10.60;99.90;;;;;;5019592;28;20479;-80
2023/11/05 15:58:32;;;;;;;4.87;3.73;;;10.50;99.90;;;;;;5021768;28;21010;-81
2023/11/05 16:01:06;;;;;;;3.93;3.53;;;10.50;99.90;;;;;;5028098;28;20468;-78
2023/11/05 16:03:43;;;;;;;9.43;4.20;;;10.50;99.90;;;;;;5019228;28;20460;-78
2023/11/05 16:06:20;;;;;;;4.87;3.63;;;10.50;99.90;;;;;;5013461;28;20456;-78
2023/11/05 16:11:35;;;;;;;13.50;7.87;;;10.60;99.90;;;;;;5016736;28;20469;-77
2023/11/05 16:14:06;;;;;;;5.00;4.50;;;10.50;99.90;;;;;;5009578;28;21187;-79
2023/11/05 16:16:38;;;;;;;8.20;4.63;;;10.50;99.90;;;;;;5020189;28;20483;-78
2023/11/05 16:19:36;;;;;;;6.50;5.17;;;10.50;99.90;;;;;;5016820;28;20449;-77
2023/11/05 16:22:26;;;;;;;4.13;3.53;;;10.60;99.90;;;;;;5016137;28;20546;-79
2023/11/05 16:25:16;;;;;;;5.37;3.60;;;10.50;99.90;;;;;;5013578;28;20501;-79
2023/11/05 16:28:09;;;;;;;11.43;5.00;;;10.50;99.90;;;;;;4971751;28;20979;-77
2023/11/05 16:30:48;;;;;;;8.30;4.10;;;10.50;99.90;;;;;;5018076;28;20537;-78
2023/11/05 16:33:35;;;;;;;8.10;4.50;;;10.50;99.90;;;;;;5007944;28;20490;-78
2023/11/05 16:36:10;;;;;;;7.07;5.00;;;10.50;99.90;;;;;;5021993;28;20547;-79
2023/11/05 16:38:43;;;;;;;13.50;4.53;;;10.50;99.90;;;;;;5024606;28;20464;-78
2023/11/05 16:41:13;;;;;;;8.13;4.47;;;10.50;99.90;;;;;;5024358;28;20472;-81
2023/11/05 16:43:47;;;;;;;7.50;3.53;;;10.50;99.90;;;;;;5031652;28;20486;-82
2023/11/05 16:46:17;;;;;;;6.00;3.53;;;10.50;99.90;;;;;;5018696;28;20875;-82
2023/11/05 16:48:47;;;;;;;6.83;3.20;;;10.50;99.90;;;;;;5019072;28;20539;-80
2023/11/05 16:51:20;;;;;;;8.33;3.73;;;10.50;99.90;;;;;;5015668;28;20460;-81
2023/11/05 16:53:49;;;;;;;4.97;4.30;;;10.50;99.90;;;;;;5020990;28;20457;-79
2023/11/05 16:56:18;;;;;;;6.80;3.47;;;10.50;99.90;;;;;;5017953;28;20496;-81
2023/11/05 16:58:45;;;;;;;6.00;3.10;;;10.50;99.90;;;;;;5021116;28;20527;-79
2023/11/05 17:01:23;;;;;;;3.83;2.83;;;10.50;99.90;;;;;;5023458;28;20879;-77
2023/11/05 17:03:57;;;;;;;6.97;3.50;;;10.50;99.90;;;;;;5021928;28;20478;-79
2023/11/05 17:06:28;;;;;;;6.60;3.67;;;10.50;99.90;;;;;;5017214;28;20820;-79
2023/11/05 17:08:56;;;;;;;6.10;2.60;;;10.60;99.90;;;;;;5021024;28;20450;-79
2023/11/05 17:11:28;;;;;;;5.13;3.10;;;10.60;99.90;;;;;;5012066;28;20453;-81
2023/11/05 17:13:55;;;;;;;6.53;3.43;;;10.60;99.90;;;;;;5016570;28;20482;-79
2023/11/05 17:16:23;;;;;;;6.80;3.63;;;10.60;99.90;;;;;;5021159;28;20568;-78
2023/11/05 17:18:50;;;;;;;5.20;3.40;;;10.60;99.90;;;;;;5014296;28;20446;-78
2023/11/05 17:21:21;;;;;;;6.10;3.03;;;10.60;99.90;;;;;;5019691;28;20900;-80
2023/11/05 17:23:50;;;;;;;5.63;3.13;;;10.60;99.90;;;;;;5026165;28;20481;-77
2023/11/05 17:26:24;;;;;;;7.43;2.50;;;10.70;99.90;;;;;;5027075;28;20538;-79
2023/11/05 17:28:50;;;;;;;5.77;2.70;;;10.70;99.90;;;;;;5025790;28;20492;-81
2023/11/05 17:31:19;;;;;;;6.40;2.83;;;10.70;99.90;;;;;;5023868;28;20475;-80
2023/11/05 17:33:50;;;;;;;9.07;2.80;;;10.70;99.90;;;;;;5036628;22;20464;-80
2023/11/05 17:36:46;;;;;;;6.20;2.40;;;10.80;99.90;;;;;;5015037;28;20580;-78
2023/11/05 17:39:32;;;;;;;4.17;1.87;;;10.80;99.90;;;;;;5010807;28;20465;-80
2023/11/05 17:42:04;;;;;;;3.03;2.07;;;10.80;99.90;;;;;;5010159;28;20468;-79
2023/11/05 17:45:03;;;;;;;6.00;2.70;;;10.90;99.90;;;;;;5010609;28;21167;-79
2023/11/05 17:47:41;;;;;;;6.13;2.20;;;10.80;99.90;;;;;;4988147;28;20450;-78
2023/11/05 17:50:13;;;;;;;4.20;2.10;;;10.80;99.90;;;;;;4999743;28;20466;-79
2023/11/05 17:52:44;;;;;;;5.93;2.20;;;10.80;99.90;;;;;;4993210;28;20993;-78
2023/11/05 17:55:14;;;;;;;8.60;4.53;;;10.80;99.90;;;;;;4977558;28;20472;-79
2023/11/05 17:57:46;;;;;;;4.77;2.37;;;10.80;99.90;;;;;;4977382;28;20499;-79
2023/11/05 18:00:23;;;;;;;4.47;2.43;;;10.80;99.90;;;;;;4986301;28;20451;-78
2023/11/05 18:02:56;;;;;;;4.80;2.10;;;10.70;99.90;;;;;;4980745;28;20457;-79
2023/11/05 18:05:24;;;;;;;5.80;1.77;;;10.70;99.90;;;;;;4976267;28;20491;-79
2023/11/05 18:07:53;;;;;;;3.00;1.60;;;10.70;99.90;;;;;;4983704;28;20487;-79
2023/11/05 18:10:20;;;;;;;4.87;2.13;;;10.60;99.90;;;;;;4973338;28;20830;-79
2023/11/05 18:12:49;;;;;;;3.70;1.67;;;10.60;99.90;;;;;;4975819;28;20532;-79
2023/11/05 18:15:16;;;;;;;6.80;2.03;;;10.60;99.90;;;;;;4976378;28;20498;-80
2023/11/05 18:17:43;;;;;;;2.53;1.50;;;10.60;99.90;;;;;;4978994;28;20500;-79
2023/11/05 18:20:11;;;;;;;2.83;1.50;;;10.60;99.90;;;;;;4972927;28;20783;-79
2023/11/05 18:22:38;;;;;;;4.73;1.50;;;10.50;99.90;;;;;;4978936;28;20451;-81